sensor_id;sensor_type;location;lat;lon;timestamp;P1;durP1;ratioP1;P2;durP2;ratioP2
33786;SDS011;29742;51.540;9.358;2022-08-02T00:05:01;1.92;;;1.50;;
33786;SDS011;29742;51.540;9.358;2022-08-02T00:10:11;3.00;;;1.27;;
33786;SDS011;29742;51.540;9.358;2022-08-02T00:15:12;1.60;;;1.30;;
33786;SDS011;29742;51.540;9.358;2022-08-02T00:20:13;2.63;;;1.50;;
33786;SDS011;29742;51.540;9.358;2022-08-02T00:25:15;2.05;;;1.23;;
33786;SDS011;29742;51.540;9.358;2022-08-02T00:30:15;3.58;;;1.17;;
33786;SDS011;29742;51.540;9.358;2022-08-02T00:35:16;2.03;;;1.58;;
33786;SDS011;29742;51.540;9.358;2022-08-02T00:45:56;1.67;;;1.55;;
33786;SDS011;29742;51.540;9.358;2022-08-02T00:50:57;4.35;;;2.10;;
33786;SDS011;29742;51.540;9.358;2022-08-02T00:55:58;3.85;;;1.50;;
33786;SDS011;29742;51.540;9.358;2022-08-02T01:00:59;4.07;;;1.40;;
33786;SDS011;29742;51.540;9.358;2022-08-02T01:06:01;6.43;;;1.77;;
33786;SDS011;29742;51.540;9.358;2022-08-02T01:11:02;2.53;;;1.63;;
33786;SDS011;29742;51.540;9.358;2022-08-02T01:16:09;2.05;;;1.52;;
33786;SDS011;29742;51.540;9.358;2022-08-02T01:26:42;2.00;;;1.17;;
33786;SDS011;29742;51.540;9.358;2022-08-02T01:31:47;3.47;;;1.20;;
33786;SDS011;29742;51.540;9.358;2022-08-02T01:37:10;1.73;;;1.05;;
33786;SDS011;29742;51.540;9.358;2022-08-02T01:42:13;1.60;;;1.50;;
33786;SDS011;29742;51.540;9.358;2022-08-02T01:47:19;1.88;;;1.30;;
33786;SDS011;29742;51.540;9.358;2022-08-02T01:52:21;1.42;;;1.30;;
33786;SDS011;29742;51.540;9.358;2022-08-02T01:57:25;3.17;;;1.48;;
33786;SDS011;29742;51.540;9.358;2022-08-02T02:02:27;2.35;;;1.10;;
33786;SDS011;29742;51.540;9.358;2022-08-02T02:07:29;2.30;;;1.52;;
33786;SDS011;29742;51.540;9.358;2022-08-02T02:12:32;1.88;;;1.30;;
33786;SDS011;29742;51.540;9.358;2022-08-02T02:17:33;1.23;;;0.95;;
33786;SDS011;29742;51.540;9.358;2022-08-02T02:22:35;3.55;;;1.52;;
33786;SDS011;29742;51.540;9.358;2022-08-02T02:27:36;1.45;;;1.10;;
33786;SDS011;29742;51.540;9.358;2022-08-02T02:32:39;4.70;;;1.35;;
33786;SDS011;29742;51.540;9.358;2022-08-02T02:37:41;1.40;;;1.20;;
33786;SDS011;29742;51.540;9.358;2022-08-02T02:42:43;3.70;;;1.30;;
33786;SDS011;29742;51.540;9.358;2022-08-02T02:47:45;1.27;;;1.17;;
33786;SDS011;29742;51.540;9.358;2022-08-02T02:52:48;1.60;;;1.20;;
33786;SDS011;29742;51.540;9.358;2022-08-02T02:57:49;1.55;;;1.05;;
33786;SDS011;29742;51.540;9.358;2022-08-02T03:02:50;1.67;;;1.40;;
33786;SDS011;29742;51.540;9.358;2022-08-02T03:07:51;1.67;;;1.10;;
33786;SDS011;29742;51.540;9.358;2022-08-02T03:12:53;3.35;;;1.00;;
33786;SDS011;29742;51.540;9.358;2022-08-02T03:17:56;1.15;;;1.00;;
33786;SDS011;29742;51.540;9.358;2022-08-02T03:22:57;1.30;;;1.17;;
33786;SDS011;29742;51.540;9.358;2022-08-02T03:27:57;2.83;;;1.00;;
33786;SDS011;29742;51.540;9.358;2022-08-02T03:32:58;1.35;;;1.05;;
33786;SDS011;29742;51.540;9.358;2022-08-02T03:37:59;1.38;;;1.02;;
33786;SDS011;29742;51.540;9.358;2022-08-02T03:43:27;1.10;;;0.93;;
33786;SDS011;29742;51.540;9.358;2022-08-02T03:48:28;1.00;;;1.00;;
33786;SDS011;29742;51.540;9.358;2022-08-02T03:53:30;1.17;;;1.08;;
33786;SDS011;29742;51.540;9.358;2022-08-02T03:58:32;1.17;;;1.08;;
33786;SDS011;29742;51.540;9.358;2022-08-02T04:03:33;1.17;;;1.08;;
33786;SDS011;29742;51.540;9.358;2022-08-02T04:08:34;2.45;;;1.10;;
33786;SDS011;29742;51.540;9.358;2022-08-02T04:13:36;1.25;;;1.15;;
33786;SDS011;29742;51.540;9.358;2022-08-02T04:18:44;1.15;;;1.05;;
33786;SDS011;29742;51.540;9.358;2022-08-02T04:23:46;1.20;;;1.10;;
33786;SDS011;29742;51.540;9.358;2022-08-02T04:28:48;0.90;;;0.90;;
33786;SDS011;29742;51.540;9.358;2022-08-02T04:33:49;4.47;;;1.50;;
33786;SDS011;29742;51.540;9.358;2022-08-02T04:38:50;1.23;;;1.00;;
33786;SDS011;29742;51.540;9.358;2022-08-02T04:43:51;1.88;;;1.33;;
33786;SDS011;29742;51.540;9.358;2022-08-02T04:48:52;1.05;;;0.90;;
33786;SDS011;29742;51.540;9.358;2022-08-02T04:53:53;1.20;;;1.08;;
33786;SDS011;29742;51.540;9.358;2022-08-02T04:58:54;1.00;;;0.90;;
33786;SDS011;29742;51.540;9.358;2022-08-02T05:03:55;1.10;;;1.00;;
33786;SDS011;29742;51.540;9.358;2022-08-02T05:08:56;1.02;;;1.00;;
33786;SDS011;29742;51.540;9.358;2022-08-02T05:13:57;2.13;;;0.88;;
33786;SDS011;29742;51.540;9.358;2022-08-02T05:18:59;2.50;;;1.17;;
33786;SDS011;29742;51.540;9.358;2022-08-02T05:24:00;0.98;;;0.80;;
33786;SDS011;29742;51.540;9.358;2022-08-02T05:29:01;0.60;;;0.60;;
33786;SDS011;29742;51.540;9.358;2022-08-02T05:34:03;3.03;;;1.13;;
33786;SDS011;29742;51.540;9.358;2022-08-02T05:39:04;0.90;;;0.90;;
33786;SDS011;29742;51.540;9.358;2022-08-02T05:44:05;1.80;;;1.00;;
33786;SDS011;29742;51.540;9.358;2022-08-02T05:49:06;0.82;;;0.80;;
33786;SDS011;29742;51.540;9.358;2022-08-02T05:59:13;1.15;;;1.05;;
33786;SDS011;29742;51.540;9.358;2022-08-02T06:04:24;1.48;;;0.90;;
33786;SDS011;29742;51.540;9.358;2022-08-02T06:09:25;0.88;;;0.85;;
33786;SDS011;29742;51.540;9.358;2022-08-02T06:14:26;1.15;;;0.70;;
33786;SDS011;29742;51.540;9.358;2022-08-02T06:19:28;1.85;;;1.00;;
33786;SDS011;29742;51.540;9.358;2022-08-02T06:24:29;0.80;;;0.80;;
33786;SDS011;29742;51.540;9.358;2022-08-02T06:29:31;0.80;;;0.80;;
33786;SDS011;29742;51.540;9.358;2022-08-02T06:34:36;1.00;;;0.90;;
33786;SDS011;29742;51.540;9.358;2022-08-02T06:39:44;0.70;;;0.70;;
33786;SDS011;29742;51.540;9.358;2022-08-02T06:44:45;1.75;;;0.70;;
33786;SDS011;29742;51.540;9.358;2022-08-02T06:49:46;0.95;;;0.95;;
33786;SDS011;29742;51.540;9.358;2022-08-02T06:54:47;1.13;;;1.02;;
33786;SDS011;29742;51.540;9.358;2022-08-02T06:59:48;1.20;;;0.65;;
33786;SDS011;29742;51.540;9.358;2022-08-02T07:04:49;0.65;;;0.60;;
33786;SDS011;29742;51.540;9.358;2022-08-02T07:09:51;0.80;;;0.80;;
33786;SDS011;29742;51.540;9.358;2022-08-02T07:14:52;0.93;;;0.90;;
33786;SDS011;29742;51.540;9.358;2022-08-02T07:19:53;0.70;;;0.70;;
33786;SDS011;29742;51.540;9.358;2022-08-02T07:24:54;1.02;;;0.90;;
33786;SDS011;29742;51.540;9.358;2022-08-02T07:29:56;3.25;;;2.30;;
33786;SDS011;29742;51.540;9.358;2022-08-02T07:34:57;6.10;;;3.08;;
33786;SDS011;29742;51.540;9.358;2022-08-02T07:39:59;3.55;;;3.10;;
33786;SDS011;29742;51.540;9.358;2022-08-02T07:45:00;6.53;;;3.45;;
33786;SDS011;29742;51.540;9.358;2022-08-02T07:50:01;3.83;;;3.03;;
33786;SDS011;29742;51.540;9.358;2022-08-02T07:55:03;4.53;;;3.13;;
33786;SDS011;29742;51.540;9.358;2022-08-02T08:00:04;4.65;;;3.55;;
33786;SDS011;29742;51.540;9.358;2022-08-02T08:05:06;4.25;;;3.08;;
33786;SDS011;29742;51.540;9.358;2022-08-02T08:10:07;3.42;;;3.03;;
33786;SDS011;29742;51.540;9.358;2022-08-02T08:15:08;5.10;;;2.90;;
33786;SDS011;29742;51.540;9.358;2022-08-02T08:20:10;2.53;;;2.25;;
33786;SDS011;29742;51.540;9.358;2022-08-02T08:25:11;4.38;;;2.63;;
33786;SDS011;29742;51.540;9.358;2022-08-02T08:30:12;3.20;;;2.55;;
33786;SDS011;29742;51.540;9.358;2022-08-02T08:35:13;3.80;;;3.00;;
33786;SDS011;29742;51.540;9.358;2022-08-02T08:40:14;4.00;;;2.80;;
33786;SDS011;29742;51.540;9.358;2022-08-02T08:45:16;16.35;;;3.63;;
33786;SDS011;29742;51.540;9.358;2022-08-02T08:50:18;3.60;;;2.72;;
33786;SDS011;29742;51.540;9.358;2022-08-02T08:55:21;5.93;;;2.20;;
33786;SDS011;29742;51.540;9.358;2022-08-02T09:00:26;12.57;;;3.40;;
33786;SDS011;29742;51.540;9.358;2022-08-02T09:05:26;7.03;;;2.80;;
33786;SDS011;29742;51.540;9.358;2022-08-02T09:10:38;6.50;;;3.03;;
33786;SDS011;29742;51.540;9.358;2022-08-02T09:15:39;5.10;;;2.65;;
33786;SDS011;29742;51.540;9.358;2022-08-02T09:20:51;7.03;;;2.78;;
33786;SDS011;29742;51.540;9.358;2022-08-02T09:41:05;2.33;;;2.13;;
33786;SDS011;29742;51.540;9.358;2022-08-02T09:46:19;7.13;;;2.30;;
33786;SDS011;29742;51.540;9.358;2022-08-02T09:51:21;2.72;;;2.05;;
33786;SDS011;29742;51.540;9.358;2022-08-02T09:56:23;4.90;;;2.05;;
33786;SDS011;29742;51.540;9.358;2022-08-02T10:01:33;1.70;;;1.60;;
33786;SDS011;29742;51.540;9.358;2022-08-02T10:06:35;2.72;;;1.67;;
33786;SDS011;29742;51.540;9.358;2022-08-02T10:11:36;2.17;;;1.80;;
33786;SDS011;29742;51.540;9.358;2022-08-02T10:16:38;3.60;;;1.85;;
33786;SDS011;29742;51.540;9.358;2022-08-02T10:21:49;3.53;;;1.90;;
33786;SDS011;29742;51.540;9.358;2022-08-02T10:26:52;2.20;;;1.80;;
33786;SDS011;29742;51.540;9.358;2022-08-02T10:32:00;3.28;;;1.60;;
33786;SDS011;29742;51.540;9.358;2022-08-02T10:37:04;6.30;;;1.80;;
33786;SDS011;29742;51.540;9.358;2022-08-02T10:42:06;3.55;;;1.92;;
33786;SDS011;29742;51.540;9.358;2022-08-02T10:52:16;3.05;;;2.35;;
33786;SDS011;29742;51.540;9.358;2022-08-02T10:57:19;5.53;;;2.20;;
33786;SDS011;29742;51.540;9.358;2022-08-02T11:02:34;1.92;;;1.70;;
33786;SDS011;29742;51.540;9.358;2022-08-02T11:07:36;3.03;;;1.90;;
33786;SDS011;29742;51.540;9.358;2022-08-02T11:12:57;3.55;;;2.05;;
33786;SDS011;29742;51.540;9.358;2022-08-02T11:17:58;5.03;;;1.90;;
33786;SDS011;29742;51.540;9.358;2022-08-02T11:28:19;2.10;;;1.67;;
33786;SDS011;29742;51.540;9.358;2022-08-02T11:33:21;1.85;;;1.75;;
33786;SDS011;29742;51.540;9.358;2022-08-02T11:38:29;3.15;;;1.90;;
33786;SDS011;29742;51.540;9.358;2022-08-02T11:43:30;2.60;;;2.17;;
33786;SDS011;29742;51.540;9.358;2022-08-02T11:48:35;2.47;;;2.03;;
33786;SDS011;29742;51.540;9.358;2022-08-02T11:53:54;3.47;;;1.73;;
33786;SDS011;29742;51.540;9.358;2022-08-02T11:59:03;4.20;;;1.73;;
33786;SDS011;29742;51.540;9.358;2022-08-02T12:04:05;5.07;;;2.28;;
33786;SDS011;29742;51.540;9.358;2022-08-02T12:09:07;5.43;;;2.13;;
33786;SDS011;29742;51.540;9.358;2022-08-02T12:14:08;6.43;;;2.60;;
33786;SDS011;29742;51.540;9.358;2022-08-02T12:19:12;8.25;;;2.40;;
33786;SDS011;29742;51.540;9.358;2022-08-02T12:24:26;10.88;;;3.25;;
33786;SDS011;29742;51.540;9.358;2022-08-02T12:29:31;9.30;;;2.88;;
33786;SDS011;29742;51.540;9.358;2022-08-02T12:34:33;6.25;;;2.30;;
33786;SDS011;29742;51.540;9.358;2022-08-02T12:39:35;11.32;;;2.47;;
33786;SDS011;29742;51.540;9.358;2022-08-02T12:44:43;10.82;;;2.70;;
33786;SDS011;29742;51.540;9.358;2022-08-02T12:55:28;9.63;;;3.08;;
33786;SDS011;29742;51.540;9.358;2022-08-02T13:00:33;4.82;;;1.73;;
33786;SDS011;29742;51.540;9.358;2022-08-02T13:05:34;9.18;;;2.35;;
33786;SDS011;29742;51.540;9.358;2022-08-02T13:10:35;7.78;;;2.47;;
33786;SDS011;29742;51.540;9.358;2022-08-02T13:15:36;12.00;;;2.70;;
33786;SDS011;29742;51.540;9.358;2022-08-02T13:20:37;6.72;;;2.30;;
33786;SDS011;29742;51.540;9.358;2022-08-02T13:25:40;7.82;;;2.22;;
33786;SDS011;29742;51.540;9.358;2022-08-02T13:30:41;3.92;;;2.20;;
33786;SDS011;29742;51.540;9.358;2022-08-02T13:35:42;13.18;;;2.97;;
33786;SDS011;29742;51.540;9.358;2022-08-02T13:40:43;14.00;;;3.05;;
33786;SDS011;29742;51.540;9.358;2022-08-02T13:46:05;8.88;;;2.75;;
33786;SDS011;29742;51.540;9.358;2022-08-02T13:51:06;9.27;;;2.20;;
33786;SDS011;29742;51.540;9.358;2022-08-02T14:01:11;6.03;;;2.13;;
33786;SDS011;29742;51.540;9.358;2022-08-02T14:06:12;6.50;;;2.25;;
33786;SDS011;29742;51.540;9.358;2022-08-02T14:11:13;4.63;;;2.10;;
33786;SDS011;29742;51.540;9.358;2022-08-02T14:16:14;5.53;;;2.03;;
33786;SDS011;29742;51.540;9.358;2022-08-02T14:21:15;3.40;;;1.83;;
33786;SDS011;29742;51.540;9.358;2022-08-02T14:26:16;2.72;;;2.25;;
33786;SDS011;29742;51.540;9.358;2022-08-02T14:31:17;6.10;;;2.45;;
33786;SDS011;29742;51.540;9.358;2022-08-02T14:36:18;3.15;;;2.05;;
33786;SDS011;29742;51.540;9.358;2022-08-02T14:41:19;3.63;;;2.00;;
33786;SDS011;29742;51.540;9.358;2022-08-02T14:46:20;6.50;;;2.17;;
33786;SDS011;29742;51.540;9.358;2022-08-02T14:51:21;11.10;;;2.45;;
33786;SDS011;29742;51.540;9.358;2022-08-02T14:56:22;7.93;;;2.45;;
33786;SDS011;29742;51.540;9.358;2022-08-02T15:01:23;7.95;;;2.47;;
33786;SDS011;29742;51.540;9.358;2022-08-02T15:06:24;10.68;;;3.08;;
33786;SDS011;29742;51.540;9.358;2022-08-02T15:11:30;8.88;;;2.95;;
33786;SDS011;29742;51.540;9.358;2022-08-02T15:16:31;7.15;;;2.38;;
33786;SDS011;29742;51.540;9.358;2022-08-02T15:21:34;5.10;;;2.30;;
33786;SDS011;29742;51.540;9.358;2022-08-02T15:26:35;5.47;;;2.40;;
33786;SDS011;29742;51.540;9.358;2022-08-02T15:31:36;6.38;;;2.42;;
33786;SDS011;29742;51.540;9.358;2022-08-02T15:36:37;6.80;;;2.20;;
33786;SDS011;29742;51.540;9.358;2022-08-02T15:41:38;3.90;;;2.42;;
33786;SDS011;29742;51.540;9.358;2022-08-02T15:46:39;21.35;;;4.15;;
33786;SDS011;29742;51.540;9.358;2022-08-02T15:51:40;9.10;;;2.85;;
33786;SDS011;29742;51.540;9.358;2022-08-02T15:56:41;13.13;;;2.97;;
33786;SDS011;29742;51.540;9.358;2022-08-02T16:01:42;10.13;;;2.90;;
33786;SDS011;29742;51.540;9.358;2022-08-02T16:06:43;6.70;;;2.55;;
33786;SDS011;29742;51.540;9.358;2022-08-02T16:11:44;6.72;;;2.08;;
33786;SDS011;29742;51.540;9.358;2022-08-02T16:16:45;7.60;;;2.45;;
33786;SDS011;29742;51.540;9.358;2022-08-02T16:21:46;6.82;;;2.45;;
33786;SDS011;29742;51.540;9.358;2022-08-02T16:26:49;7.25;;;2.83;;
33786;SDS011;29742;51.540;9.358;2022-08-02T16:31:50;3.85;;;2.10;;
33786;SDS011;29742;51.540;9.358;2022-08-02T16:36:51;7.72;;;2.55;;
33786;SDS011;29742;51.540;9.358;2022-08-02T16:41:52;3.42;;;2.33;;
33786;SDS011;29742;51.540;9.358;2022-08-02T16:46:53;6.03;;;2.72;;
33786;SDS011;29742;51.540;9.358;2022-08-02T16:51:54;5.53;;;2.47;;
33786;SDS011;29742;51.540;9.358;2022-08-02T16:56:55;7.55;;;3.13;;
33786;SDS011;29742;51.540;9.358;2022-08-02T17:01:56;13.88;;;3.58;;
33786;SDS011;29742;51.540;9.358;2022-08-02T17:06:57;7.35;;;2.60;;
33786;SDS011;29742;51.540;9.358;2022-08-02T17:11:58;10.90;;;3.10;;
33786;SDS011;29742;51.540;9.358;2022-08-02T17:16:59;5.75;;;3.38;;
33786;SDS011;29742;51.540;9.358;2022-08-02T17:21:59;10.80;;;3.15;;
33786;SDS011;29742;51.540;9.358;2022-08-02T17:27:00;4.40;;;2.40;;
33786;SDS011;29742;51.540;9.358;2022-08-02T17:32:01;10.18;;;3.10;;
33786;SDS011;29742;51.540;9.358;2022-08-02T17:37:02;6.22;;;3.17;;
33786;SDS011;29742;51.540;9.358;2022-08-02T17:42:03;11.10;;;2.55;;
33786;SDS011;29742;51.540;9.358;2022-08-02T17:47:05;10.23;;;2.85;;
33786;SDS011;29742;51.540;9.358;2022-08-02T17:52:06;9.23;;;2.53;;
33786;SDS011;29742;51.540;9.358;2022-08-02T17:57:07;5.25;;;2.35;;
33786;SDS011;29742;51.540;9.358;2022-08-02T18:02:10;5.55;;;2.10;;
33786;SDS011;29742;51.540;9.358;2022-08-02T18:07:11;3.20;;;2.53;;
33786;SDS011;29742;51.540;9.358;2022-08-02T18:12:12;5.93;;;2.75;;
33786;SDS011;29742;51.540;9.358;2022-08-02T18:17:13;6.30;;;2.47;;
33786;SDS011;29742;51.540;9.358;2022-08-02T18:22:15;5.07;;;2.90;;
33786;SDS011;29742;51.540;9.358;2022-08-02T18:27:16;7.20;;;2.38;;
33786;SDS011;29742;51.540;9.358;2022-08-02T18:32:17;5.18;;;2.72;;
33786;SDS011;29742;51.540;9.358;2022-08-02T18:37:18;7.93;;;1.95;;
33786;SDS011;29742;51.540;9.358;2022-08-02T18:42:19;8.60;;;2.83;;
33786;SDS011;29742;51.540;9.358;2022-08-02T18:47:20;5.93;;;2.35;;
33786;SDS011;29742;51.540;9.358;2022-08-02T18:52:21;8.15;;;2.20;;
33786;SDS011;29742;51.540;9.358;2022-08-02T18:57:22;7.65;;;2.63;;
33786;SDS011;29742;51.540;9.358;2022-08-02T19:02:23;14.68;;;2.60;;
33786;SDS011;29742;51.540;9.358;2022-08-02T19:07:24;9.05;;;2.10;;
33786;SDS011;29742;51.540;9.358;2022-08-02T19:12:25;6.03;;;2.30;;
33786;SDS011;29742;51.540;9.358;2022-08-02T19:17:27;6.18;;;2.63;;
33786;SDS011;29742;51.540;9.358;2022-08-02T19:22:28;4.70;;;2.00;;
33786;SDS011;29742;51.540;9.358;2022-08-02T19:27:29;6.25;;;2.17;;
33786;SDS011;29742;51.540;9.358;2022-08-02T19:32:31;3.80;;;2.63;;
33786;SDS011;29742;51.540;9.358;2022-08-02T19:37:32;3.30;;;2.33;;
33786;SDS011;29742;51.540;9.358;2022-08-02T19:42:33;4.70;;;2.28;;
33786;SDS011;29742;51.540;9.358;2022-08-02T19:47:35;5.28;;;2.33;;
33786;SDS011;29742;51.540;9.358;2022-08-02T19:52:36;4.82;;;2.63;;
33786;SDS011;29742;51.540;9.358;2022-08-02T19:57:38;3.55;;;2.30;;
33786;SDS011;29742;51.540;9.358;2022-08-02T20:02:39;8.52;;;2.50;;
33786;SDS011;29742;51.540;9.358;2022-08-02T20:07:40;4.20;;;2.35;;
33786;SDS011;29742;51.540;9.358;2022-08-02T20:12:44;5.53;;;2.50;;
33786;SDS011;29742;51.540;9.358;2022-08-02T20:17:45;4.95;;;2.30;;
33786;SDS011;29742;51.540;9.358;2022-08-02T20:22:46;3.95;;;2.28;;
33786;SDS011;29742;51.540;9.358;2022-08-02T20:28:05;4.28;;;2.50;;
33786;SDS011;29742;51.540;9.358;2022-08-02T20:33:07;2.75;;;2.03;;
33786;SDS011;29742;51.540;9.358;2022-08-02T20:38:09;4.70;;;2.47;;
33786;SDS011;29742;51.540;9.358;2022-08-02T20:43:10;7.10;;;2.85;;
33786;SDS011;29742;51.540;9.358;2022-08-02T20:48:11;3.15;;;2.53;;
33786;SDS011;29742;51.540;9.358;2022-08-02T20:53:12;3.15;;;2.75;;
33786;SDS011;29742;51.540;9.358;2022-08-02T20:58:17;3.40;;;2.42;;
33786;SDS011;29742;51.540;9.358;2022-08-02T21:08:19;4.88;;;2.45;;
33786;SDS011;29742;51.540;9.358;2022-08-02T21:13:20;8.45;;;2.97;;
33786;SDS011;29742;51.540;9.358;2022-08-02T21:18:22;2.78;;;2.55;;
33786;SDS011;29742;51.540;9.358;2022-08-02T21:23:23;7.90;;;2.85;;
33786;SDS011;29742;51.540;9.358;2022-08-02T21:28:25;6.28;;;2.63;;
33786;SDS011;29742;51.540;9.358;2022-08-02T21:33:26;3.90;;;2.70;;
33786;SDS011;29742;51.540;9.358;2022-08-02T21:38:27;3.53;;;2.70;;
33786;SDS011;29742;51.540;9.358;2022-08-02T21:43:28;5.80;;;2.33;;
33786;SDS011;29742;51.540;9.358;2022-08-02T21:48:29;4.72;;;2.25;;
33786;SDS011;29742;51.540;9.358;2022-08-02T21:53:29;4.28;;;2.47;;
33786;SDS011;29742;51.540;9.358;2022-08-02T21:58:30;2.58;;;2.22;;
33786;SDS011;29742;51.540;9.358;2022-08-02T22:03:31;3.90;;;2.22;;
33786;SDS011;29742;51.540;9.358;2022-08-02T22:08:32;2.58;;;2.22;;
33786;SDS011;29742;51.540;9.358;2022-08-02T22:13:34;2.50;;;2.22;;
33786;SDS011;29742;51.540;9.358;2022-08-02T22:18:35;7.32;;;3.08;;
33786;SDS011;29742;51.540;9.358;2022-08-02T22:23:36;2.70;;;2.50;;
33786;SDS011;29742;51.540;9.358;2022-08-02T22:28:37;5.78;;;2.13;;
33786;SDS011;29742;51.540;9.358;2022-08-02T22:33:38;2.97;;;2.40;;
33786;SDS011;29742;51.540;9.358;2022-08-02T22:38:58;6.65;;;2.30;;
33786;SDS011;29742;51.540;9.358;2022-08-02T22:43:59;3.70;;;2.75;;
33786;SDS011;29742;51.540;9.358;2022-08-02T22:49:00;4.30;;;2.38;;
33786;SDS011;29742;51.540;9.358;2022-08-02T22:54:01;2.72;;;2.50;;
33786;SDS011;29742;51.540;9.358;2022-08-02T22:59:02;8.02;;;3.28;;
33786;SDS011;29742;51.540;9.358;2022-08-02T23:04:03;5.20;;;2.40;;
33786;SDS011;29742;51.540;9.358;2022-08-02T23:09:04;7.00;;;2.47;;
33786;SDS011;29742;51.540;9.358;2022-08-02T23:14:05;4.32;;;2.67;;
33786;SDS011;29742;51.540;9.358;2022-08-02T23:19:06;3.38;;;2.22;;
33786;SDS011;29742;51.540;9.358;2022-08-02T23:24:25;4.07;;;2.40;;
33786;SDS011;29742;51.540;9.358;2022-08-02T23:29:27;3.17;;;2.33;;
33786;SDS011;29742;51.540;9.358;2022-08-02T23:34:28;2.78;;;2.13;;
33786;SDS011;29742;51.540;9.358;2022-08-02T23:39:33;3.58;;;2.83;;
33786;SDS011;29742;51.540;9.358;2022-08-02T23:44:34;3.92;;;2.28;;
33786;SDS011;29742;51.540;9.358;2022-08-02T23:49:35;2.97;;;2.35;;
33786;SDS011;29742;51.540;9.358;2022-08-02T23:54:36;7.85;;;3.35;;
33786;SDS011;29742;51.540;9.358;2022-08-02T23:59:41;3.00;;;2.40;;
